createdAt,value
2022-12-24T00:00:59.427Z,100567.70
2022-12-24T00:03:26.636Z,100568.98
2022-12-24T00:05:53.358Z,100568.71
2022-12-24T00:08:20.133Z,100571.73
2022-12-24T00:10:53.603Z,100569.75
2022-12-24T00:13:20.815Z,100573.23
2022-12-24T00:15:48.235Z,100574.34
2022-12-24T00:18:15.332Z,100573.02
2022-12-24T00:20:44.884Z,100575.14
2022-12-24T00:23:11.460Z,100573.80
2022-12-24T00:25:38.055Z,100574.17
2022-12-24T00:28:04.793Z,100574.04
2022-12-24T00:30:31.400Z,100571.28
2022-12-24T00:32:58.080Z,100570.20
2022-12-24T00:35:24.912Z,100571.71
2022-12-24T00:37:51.553Z,100573.91
2022-12-24T00:40:18.365Z,100571.48
2022-12-24T00:42:45.029Z,100570.08
2022-12-24T00:45:12.583Z,100571.63
2022-12-24T00:47:39.262Z,100567.98
2022-12-24T00:50:06.878Z,100570.73
2022-12-24T00:52:33.935Z,100572.76
2022-12-24T00:55:00.682Z,100570.29
2022-12-24T00:57:27.318Z,100572.45
2022-12-24T00:59:53.938Z,100572.92
2022-12-24T01:02:20.946Z,100570.10
2022-12-24T01:05:06.465Z,100574.88
2022-12-24T01:07:33.510Z,100576.13
2022-12-24T01:10:00.163Z,100579.65
2022-12-24T01:12:27.606Z,100581.31
2022-12-24T01:14:54.236Z,100581.42
2022-12-24T01:17:21.307Z,100579.45
2022-12-24T01:19:48.039Z,100583.55
2022-12-24T01:22:14.637Z,100588.15
2022-12-24T01:24:41.716Z,100590.52
2022-12-24T01:27:08.671Z,100590.08
2022-12-24T01:29:35.290Z,100594.83
2022-12-24T01:32:01.923Z,100598.55
2022-12-24T01:34:28.565Z,100597.06
2022-12-24T01:36:55.206Z,100597.13
2022-12-24T01:39:21.839Z,100597.43
2022-12-24T01:42:07.228Z,100606.86
2022-12-24T01:44:37.021Z,100609.71
2022-12-24T01:47:27.522Z,100607.80
2022-12-24T01:49:59.170Z,100608.92
2022-12-24T01:52:32.673Z,100611.00
2022-12-24T01:55:17.029Z,100618.77
2022-12-24T01:57:57.915Z,100621.19
2022-12-24T02:00:24.840Z,100620.71
2022-12-24T02:02:53.635Z,100619.89
2022-12-24T02:05:28.041Z,100622.35
2022-12-24T02:07:56.428Z,100628.38
2022-12-24T02:10:23.308Z,100629.06
2022-12-24T02:12:51.845Z,100630.64
2022-12-24T02:15:20.229Z,100631.66
2022-12-24T02:18:03.963Z,100633.55
2022-12-24T02:21:07.943Z,100633.29
2022-12-24T02:24:03.080Z,100636.42
2022-12-24T02:26:48.204Z,100639.20
2022-12-24T02:29:29.935Z,100642.23
2022-12-24T02:32:14.197Z,100642.64
2022-12-24T02:34:51.133Z,100646.42
2022-12-24T02:37:32.636Z,100647.39
2022-12-24T02:40:16.556Z,100650.44
2022-12-24T02:42:49.716Z,100658.66
2022-12-24T02:45:25.649Z,100656.95
2022-12-24T02:47:54.943Z,100661.58
2022-12-24T02:50:22.085Z,100665.07
2022-12-24T02:52:49.087Z,100667.23
2022-12-24T02:55:24.580Z,100666.02
2022-12-24T02:58:15.901Z,100671.46
2022-12-24T03:01:18.058Z,100676.56
2022-12-24T03:04:10.474Z,100679.36
2022-12-24T03:06:51.434Z,100676.66
2022-12-24T03:09:24.121Z,100678.77
2022-12-24T03:11:59.237Z,100677.99
2022-12-24T03:14:27.542Z,100676.34
2022-12-24T03:16:56.455Z,100677.26
2022-12-24T03:19:26.897Z,100674.53
2022-12-24T03:21:56.499Z,100674.56
2022-12-24T03:24:23.760Z,100676.48
2022-12-24T03:26:52.089Z,100678.59
2022-12-24T03:29:19.781Z,100680.85
2022-12-24T03:31:51.732Z,100686.08
2022-12-24T03:34:18.914Z,100682.73
2022-12-24T03:36:47.046Z,100685.77
2022-12-24T03:39:13.666Z,100688.95
2022-12-24T03:41:40.325Z,100689.89
2022-12-24T03:44:06.966Z,100691.71
2022-12-24T03:46:33.815Z,100695.60
2022-12-24T03:49:00.414Z,100699.27
2022-12-24T03:51:27.893Z,100697.04
2022-12-24T03:53:56.860Z,100701.52
2022-12-24T03:56:24.018Z,100705.79
2022-12-24T03:58:50.932Z,100706.44
2022-12-24T04:01:18.235Z,100709.50
2022-12-24T04:03:45.600Z,100712.50
2022-12-24T04:06:17.144Z,100716.66
2022-12-24T04:08:44.311Z,100719.79
2022-12-24T04:11:13.618Z,100717.46
2022-12-24T04:13:40.338Z,100718.58
2022-12-24T04:16:10.420Z,100725.94
2022-12-24T04:18:39.295Z,100723.98
2022-12-24T04:21:07.227Z,100723.74
2022-12-24T04:23:35.848Z,100720.39
2022-12-24T04:26:05.195Z,100723.04
2022-12-24T04:28:33.061Z,100725.85
2022-12-24T04:31:01.888Z,100726.03
2022-12-24T04:33:29.218Z,100724.86
2022-12-24T04:36:00.766Z,100723.71
2022-12-24T04:38:28.361Z,100726.05
2022-12-24T04:41:06.102Z,100725.61
2022-12-24T04:43:33.818Z,100735.63
2022-12-24T04:46:14.293Z,100737.61
2022-12-24T04:48:42.040Z,100741.92
2022-12-24T04:51:10.264Z,100739.61
2022-12-24T04:53:38.420Z,100737.98
2022-12-24T04:56:15.632Z,100737.96
2022-12-24T04:58:42.775Z,100740.30
2022-12-24T05:01:14.313Z,100734.73
2022-12-24T05:03:41.119Z,100736.55
2022-12-24T05:06:11.017Z,100743.33
2022-12-24T05:08:38.007Z,100742.05
2022-12-24T05:11:05.894Z,100743.02
2022-12-24T05:13:42.335Z,100742.64
2022-12-24T05:16:14.547Z,100738.02
2022-12-24T05:18:41.258Z,100737.21
2022-12-24T05:21:14.625Z,100746.83
2022-12-24T05:23:59.922Z,100750.09
2022-12-24T05:26:28.505Z,100758.80
2022-12-24T05:28:57.390Z,100765.30
2022-12-24T05:31:26.472Z,100768.59
2022-12-24T05:33:54.247Z,100771.08
2022-12-24T05:36:22.377Z,100771.21
2022-12-24T05:38:49.213Z,100770.60
2022-12-24T05:41:16.013Z,100773.31
2022-12-24T05:43:42.955Z,100772.76
2022-12-24T05:46:15.798Z,100774.18
2022-12-24T05:48:42.685Z,100780.04
2022-12-24T05:51:11.366Z,100785.61
2022-12-24T05:53:39.537Z,100784.46
2022-12-24T05:56:09.458Z,100787.11
2022-12-24T05:58:36.450Z,100790.22
2022-12-24T06:01:04.797Z,100784.97
2022-12-24T06:03:32.681Z,100790.52
2022-12-24T06:06:28.811Z,100796.59
2022-12-24T06:08:55.723Z,100794.62
2022-12-24T06:11:27.065Z,100798.77
2022-12-24T06:13:54.349Z,100798.77
2022-12-24T06:16:22.483Z,100800.77
2022-12-24T06:18:49.638Z,100806.99
2022-12-24T06:21:17.288Z,100807.63
2022-12-24T06:23:45.619Z,100813.42
2022-12-24T06:26:16.502Z,100817.58
2022-12-24T06:28:43.959Z,100820.67
2022-12-24T06:31:13.960Z,100820.49
2022-12-24T06:33:40.615Z,100818.93
2022-12-24T06:36:14.966Z,100815.34
2022-12-24T06:38:44.028Z,100821.83
2022-12-24T06:41:10.897Z,100820.47
2022-12-24T06:43:37.783Z,100825.88
2022-12-24T06:46:04.911Z,100829.63
2022-12-24T06:48:31.723Z,100835.02
2022-12-24T06:51:01.041Z,100841.52
2022-12-24T06:53:27.737Z,100847.34
2022-12-24T06:56:11.283Z,100850.02
2022-12-24T06:58:40.057Z,100856.83
2022-12-24T07:01:09.141Z,100860.23
2022-12-24T07:03:36.277Z,100865.55
2022-12-24T07:06:03.349Z,100872.70
2022-12-24T07:08:33.176Z,100877.50
2022-12-24T07:11:00.141Z,100875.59
2022-12-24T07:13:26.850Z,100879.48
2022-12-24T07:15:58.697Z,100880.70
2022-12-24T07:18:25.839Z,100885.98
2022-12-24T07:20:52.619Z,100892.39
2022-12-24T07:23:19.217Z,100896.70
2022-12-24T07:25:46.065Z,100901.36
2022-12-24T07:28:12.812Z,100910.34
2022-12-24T07:30:39.981Z,100913.13
2022-12-24T07:33:06.694Z,100921.48
2022-12-24T07:35:33.655Z,100917.10
2022-12-24T07:38:01.331Z,100927.77
2022-12-24T07:40:27.961Z,100928.67
2022-12-24T07:42:54.575Z,100932.46
2022-12-24T07:45:21.416Z,100933.13
2022-12-24T07:47:48.049Z,100937.59
2022-12-24T07:50:14.788Z,100941.75
2022-12-24T07:52:41.425Z,100944.33
2022-12-24T07:55:08.574Z,100953.59
2022-12-24T07:57:35.333Z,100960.45
2022-12-24T08:00:02.053Z,100957.56
2022-12-24T08:02:39.038Z,100960.44
2022-12-24T08:05:06.718Z,100963.63
2022-12-24T08:07:33.429Z,100968.44
2022-12-24T08:10:00.084Z,100969.22
2022-12-24T08:12:26.811Z,100963.83
2022-12-24T08:14:53.445Z,100967.63
2022-12-24T08:17:20.054Z,100973.75
2022-12-24T08:19:46.659Z,100975.48
2022-12-24T08:22:13.251Z,100980.68
2022-12-24T08:24:40.098Z,100980.61
2022-12-24T08:27:06.730Z,100988.21
2022-12-24T08:29:33.278Z,100987.09
2022-12-24T08:31:59.962Z,100984.30
2022-12-24T08:34:27.767Z,100979.59
2022-12-24T08:36:54.408Z,100983.70
2022-12-24T08:39:21.150Z,100987.19
2022-12-24T08:41:47.792Z,100986.73
2022-12-24T08:44:14.451Z,100983.98
2022-12-24T08:46:41.217Z,100988.52
2022-12-24T08:49:07.853Z,100987.71
2022-12-24T08:51:34.437Z,100988.52
2022-12-24T08:54:01.087Z,100992.58
2022-12-24T08:56:27.808Z,100994.25
2022-12-24T08:58:54.544Z,101000.04
2022-12-24T09:01:21.265Z,101008.39
2022-12-24T09:03:48.432Z,101012.83
2022-12-24T09:06:15.662Z,101012.80
2022-12-24T09:08:42.522Z,101020.29
2022-12-24T09:11:15.108Z,101025.59
2022-12-24T09:13:44.038Z,101025.56
2022-12-24T09:16:11.276Z,101022.98
2022-12-24T09:18:38.929Z,101024.36
2022-12-24T09:21:08.326Z,101025.78
2022-12-24T09:23:39.056Z,101027.70
2022-12-24T09:26:11.817Z,101027.69
2022-12-24T09:28:38.775Z,101032.90
2022-12-24T09:31:06.177Z,101033.62
2022-12-24T09:33:36.246Z,101032.58
2022-12-24T09:36:03.986Z,101039.06
2022-12-24T09:38:30.967Z,101043.98
2022-12-24T09:41:02.424Z,101045.78
2022-12-24T09:43:34.187Z,101046.80
2022-12-24T09:46:09.216Z,101054.20
2022-12-24T09:48:41.237Z,101056.91
2022-12-24T09:51:10.647Z,101059.80
2022-12-24T09:53:39.949Z,101063.23
2022-12-24T09:56:18.407Z,101061.10
2022-12-24T09:58:46.605Z,101062.58
2022-12-24T10:01:16.084Z,101063.23
2022-12-24T10:03:43.339Z,101066.27
2022-12-24T10:06:28.990Z,101067.61
2022-12-24T10:09:05.696Z,101070.17
2022-12-24T10:12:00.506Z,101069.98
2022-12-24T10:14:54.319Z,101074.79
2022-12-24T10:18:08.112Z,101077.72
2022-12-24T10:20:49.850Z,101075.80
2022-12-24T10:23:28.496Z,101075.46
2022-12-24T10:26:26.947Z,101079.30
2022-12-24T10:28:59.155Z,101085.30
2022-12-24T10:31:29.783Z,101088.23
2022-12-24T10:34:02.448Z,101086.38
2022-12-24T10:36:30.401Z,101086.23
2022-12-24T10:38:57.844Z,101088.29
2022-12-24T10:41:27.369Z,101088.27
2022-12-24T10:43:55.053Z,101097.20
2022-12-24T10:46:27.747Z,101102.48
2022-12-24T10:48:58.578Z,101105.35
2022-12-24T10:51:53.766Z,101103.46
2022-12-24T10:54:27.222Z,101106.04
2022-12-24T10:56:59.710Z,101106.40
2022-12-24T10:59:30.800Z,101108.73
2022-12-24T11:01:58.899Z,101109.95
2022-12-24T11:04:29.238Z,101110.21
2022-12-24T11:07:01.930Z,101108.86
2022-12-24T11:09:36.208Z,101107.11
2022-12-24T11:12:09.262Z,101114.86
2022-12-24T11:14:38.916Z,101120.17
2022-12-24T11:17:05.899Z,101119.98
2022-12-24T11:19:36.620Z,101121.01
2022-12-24T11:22:06.758Z,101122.85
2022-12-24T11:24:36.180Z,101118.16
2022-12-24T11:27:28.871Z,101123.65
2022-12-24T11:30:14.350Z,101124.73
2022-12-24T11:32:42.213Z,101124.80
2022-12-24T11:35:21.280Z,101122.51
2022-12-24T11:38:01.016Z,101125.83
2022-12-24T11:40:38.424Z,101125.48
2022-12-24T11:43:12.734Z,101134.31
2022-12-24T11:45:48.756Z,101134.45
2022-12-24T11:48:33.081Z,101136.25
2022-12-24T11:51:02.398Z,101135.84
2022-12-24T11:53:51.394Z,101145.02
2022-12-24T11:56:49.380Z,101150.52
2022-12-24T11:59:28.072Z,101153.73
2022-12-24T12:02:24.075Z,101155.20
2022-12-24T12:04:57.176Z,101163.63
2022-12-24T12:07:33.408Z,101169.73
2022-12-24T12:10:05.613Z,101175.09
2022-12-24T12:12:41.552Z,101179.08
2022-12-24T12:15:14.161Z,101187.54
2022-12-24T12:17:54.312Z,101190.98
2022-12-24T12:20:26.125Z,101194.38
2022-12-24T12:23:15.300Z,101198.77
2022-12-24T12:25:52.897Z,101195.30
2022-12-24T12:28:25.999Z,101194.64
2022-12-24T12:31:03.522Z,101195.06
2022-12-24T12:33:37.080Z,101204.45
2022-12-24T12:36:06.102Z,101204.50
2022-12-24T12:38:32.913Z,101208.62
2022-12-24T12:41:08.382Z,101211.97
2022-12-24T12:43:56.789Z,101219.39
2022-12-24T12:46:33.318Z,101226.30
2022-12-24T12:49:21.721Z,101227.35
2022-12-24T12:52:05.351Z,101238.79
2022-12-24T12:54:44.378Z,101243.40
2022-12-24T12:57:15.317Z,101243.84
2022-12-24T13:00:13.495Z,101248.73
2022-12-24T13:03:07.890Z,101254.96
2022-12-24T13:05:40.359Z,101260.17
2022-12-24T13:08:45.716Z,101258.15
2022-12-24T13:11:38.361Z,101265.14
2022-12-24T13:14:13.990Z,101266.27
2022-12-24T13:17:06.221Z,101263.70
2022-12-24T13:19:41.896Z,101268.36
2022-12-24T13:22:16.721Z,101276.23
2022-12-24T13:24:55.245Z,101278.73
2022-12-24T13:27:30.052Z,101291.41
2022-12-24T13:30:19.489Z,101294.95
2022-12-24T13:32:51.592Z,101295.77
2022-12-24T13:35:18.222Z,101298.43
2022-12-24T13:37:45.778Z,101301.08
2022-12-24T13:40:25.323Z,101308.71
2022-12-24T13:42:58.301Z,101316.73
2022-12-24T13:45:33.850Z,101316.79
2022-12-24T13:48:06.588Z,101321.66
2022-12-24T13:50:50.458Z,101325.59
2022-12-24T13:53:41.893Z,101329.45
2022-12-24T13:56:22.760Z,101334.40
2022-12-24T13:59:11.504Z,101342.42
2022-12-24T14:01:42.953Z,101344.30
2022-12-24T14:04:41.860Z,101346.20
2022-12-24T14:07:10.828Z,101344.41
2022-12-24T14:09:37.587Z,101350.43
2022-12-24T14:12:04.151Z,101353.08
2022-12-24T14:14:40.423Z,101350.11
2022-12-24T14:17:19.121Z,101348.91
2022-12-24T14:19:58.437Z,101349.83
2022-12-24T14:22:33.543Z,101352.62
2022-12-24T14:25:20.183Z,101357.05
2022-12-24T14:27:53.555Z,101359.92
2022-12-24T14:30:26.058Z,101367.23
2022-12-24T14:32:53.726Z,101373.70
2022-12-24T14:35:25.116Z,101383.05
2022-12-24T14:37:56.813Z,101385.34
2022-12-24T14:40:28.802Z,101389.52
2022-12-24T14:43:24.298Z,101391.20
2022-12-24T14:45:59.184Z,101395.29
2022-12-24T14:48:35.875Z,101398.46
2022-12-24T14:51:17.892Z,101401.57
2022-12-24T14:54:02.876Z,101410.02
2022-12-24T14:56:29.494Z,101406.92
2022-12-24T14:58:58.487Z,101415.86
2022-12-24T15:01:27.736Z,101415.05
2022-12-24T15:04:03.451Z,101414.94
2022-12-24T15:06:34.691Z,101418.38
2022-12-24T15:09:01.633Z,101422.56
2022-12-24T15:11:28.279Z,101433.27
2022-12-24T15:13:57.559Z,101431.65
2022-12-24T15:16:29.514Z,101433.36
2022-12-24T15:18:59.958Z,101437.68
2022-12-24T15:21:37.256Z,101435.46
2022-12-24T15:24:04.214Z,101435.63
2022-12-24T15:26:35.938Z,101445.77
2022-12-24T15:29:20.691Z,101454.59
2022-12-24T15:32:01.664Z,101451.27
2022-12-24T15:34:34.908Z,101452.76
2022-12-24T15:37:13.567Z,101454.34
2022-12-24T15:39:40.951Z,101450.36
2022-12-24T15:42:13.282Z,101448.33
2022-12-24T15:45:15.060Z,101441.86
2022-12-24T15:47:51.943Z,101437.80
2022-12-24T15:50:30.554Z,101441.86
2022-12-24T15:53:20.161Z,101448.57
2022-12-24T15:56:26.891Z,101462.02
2022-12-24T15:59:19.177Z,101461.52
2022-12-24T16:01:48.245Z,101460.77
2022-12-24T16:04:25.890Z,101464.63
2022-12-24T16:07:07.404Z,101471.48
2022-12-24T16:09:43.098Z,101472.55
2022-12-24T16:12:17.660Z,101472.17
2022-12-24T16:14:57.067Z,101476.01
2022-12-24T16:17:27.653Z,101472.63
2022-12-24T16:19:58.911Z,101469.39
2022-12-24T16:22:32.046Z,101466.44
2022-12-24T16:25:00.366Z,101470.10
2022-12-24T16:27:27.382Z,101475.96
2022-12-24T16:29:54.251Z,101479.21
2022-12-24T16:32:35.970Z,101484.10
2022-12-24T16:35:06.936Z,101485.84
2022-12-24T16:37:33.826Z,101488.19
2022-12-24T16:40:00.570Z,101486.56
2022-12-24T16:42:45.735Z,101490.66
2022-12-24T16:45:12.344Z,101488.38
2022-12-24T16:47:43.433Z,101485.48
2022-12-24T16:50:15.677Z,101497.15
2022-12-24T16:52:42.263Z,101499.07
2022-12-24T16:55:12.639Z,101498.02
2022-12-24T16:57:40.372Z,101497.36
2022-12-24T17:00:13.524Z,101497.15
2022-12-24T17:02:40.475Z,101503.46
2022-12-24T17:05:07.954Z,101504.23
2022-12-24T17:07:39.620Z,101504.22
2022-12-24T17:10:13.470Z,101499.80
2022-12-24T17:12:40.434Z,101501.80
2022-12-24T17:15:07.692Z,101504.11
2022-12-24T17:17:34.900Z,101507.17
2022-12-24T17:20:02.785Z,101503.30
2022-12-24T17:22:30.492Z,101508.02
2022-12-24T17:24:57.140Z,101503.94
2022-12-24T17:27:23.912Z,101508.73
2022-12-24T17:29:50.687Z,101514.83
2022-12-24T17:32:17.597Z,101518.02
2022-12-24T17:34:44.666Z,101516.65
2022-12-24T17:37:12.127Z,101521.74
2022-12-24T17:39:39.124Z,101526.03
2022-12-24T17:42:06.001Z,101532.29
2022-12-24T17:44:33.466Z,101534.50
2022-12-24T17:47:01.261Z,101535.21
2022-12-24T17:49:27.996Z,101529.20
2022-12-24T17:51:54.676Z,101530.11
2022-12-24T17:54:21.316Z,101533.24
2022-12-24T17:56:48.154Z,101536.25
2022-12-24T17:59:15.449Z,101536.10
2022-12-24T18:01:42.268Z,101543.50
2022-12-24T18:04:10.550Z,101548.36
2022-12-24T18:06:43.081Z,101549.59
2022-12-24T18:09:14.139Z,101553.38
2022-12-24T18:11:40.937Z,101549.41
2022-12-24T18:14:08.648Z,101547.84
2022-12-24T18:16:38.216Z,101542.85
2022-12-24T18:19:07.726Z,101540.84
2022-12-24T18:21:34.504Z,101541.23
2022-12-24T18:24:01.637Z,101545.70
2022-12-24T18:26:30.202Z,101543.43
2022-12-24T18:28:58.469Z,101545.98
2022-12-24T18:31:26.149Z,101560.36
2022-12-24T18:33:55.131Z,101567.02
2022-12-24T18:36:22.933Z,101563.39
2022-12-24T18:38:50.203Z,101560.61
2022-12-24T18:41:22.841Z,101564.13
2022-12-24T18:43:49.940Z,101561.86
2022-12-24T18:46:20.147Z,101564.27
2022-12-24T18:48:47.466Z,101563.91
2022-12-24T18:51:15.142Z,101570.89
2022-12-24T18:53:42.703Z,101569.28
2022-12-24T18:56:12.195Z,101576.83
2022-12-24T18:58:40.577Z,101577.94
2022-12-24T19:01:17.439Z,101576.20
2022-12-24T19:03:44.616Z,101578.45
2022-12-24T19:06:11.853Z,101588.86
2022-12-24T19:11:28.082Z,101608.98
2022-12-24T19:13:54.964Z,101614.89
2022-12-24T19:16:22.406Z,101610.31
2022-12-24T19:18:49.944Z,101609.69
2022-12-24T19:21:17.716Z,101607.69
2022-12-24T19:23:46.358Z,101609.77
2022-12-24T19:26:15.687Z,101610.05
2022-12-24T19:28:42.700Z,101612.19
2022-12-24T19:31:12.577Z,101616.47
2022-12-24T19:33:43.273Z,101618.42
2022-12-24T19:36:17.769Z,101624.89
2022-12-24T19:38:45.306Z,101621.61
2022-12-24T19:41:14.538Z,101624.89
2022-12-24T19:43:47.918Z,101637.06
2022-12-24T19:46:17.127Z,101634.05
2022-12-24T19:48:49.641Z,101642.66
2022-12-24T19:51:16.848Z,101647.50
2022-12-24T19:53:43.478Z,101653.27
2022-12-24T19:56:11.748Z,101646.08
2022-12-24T19:58:38.514Z,101646.00
2022-12-24T20:01:10.970Z,101655.50
2022-12-24T20:03:41.345Z,101660.84
2022-12-24T20:06:08.166Z,101665.95
2022-12-24T20:08:36.505Z,101666.23
2022-12-24T20:11:08.885Z,101674.31
2022-12-24T20:13:37.461Z,101677.89
2022-12-24T20:16:10.091Z,101680.59
2022-12-24T20:18:36.979Z,101686.32
2022-12-24T20:21:06.991Z,101685.65
2022-12-24T20:23:34.962Z,101686.84
2022-12-24T20:26:04.594Z,101689.10
2022-12-24T20:28:33.371Z,101692.56
2022-12-24T20:31:00.457Z,101690.27
2022-12-24T20:33:27.077Z,101697.81
2022-12-24T20:35:53.680Z,101699.81
2022-12-24T20:38:20.250Z,101706.98
2022-12-24T20:40:46.806Z,101711.22
2022-12-24T20:43:13.489Z,101715.43
2022-12-24T20:45:40.567Z,101719.20
2022-12-24T20:48:08.102Z,101724.21
2022-12-24T20:50:39.539Z,101724.22
2022-12-24T20:53:06.198Z,101728.01
2022-12-24T20:55:34.312Z,101725.89
2022-12-24T20:58:01.460Z,101719.31
2022-12-24T21:00:29.078Z,101711.31
2022-12-24T21:02:56.321Z,101710.45
2022-12-24T21:05:23.168Z,101709.98
2022-12-24T21:07:49.887Z,101708.70
2022-12-24T21:10:16.689Z,101707.02
2022-12-24T21:12:56.579Z,101705.34
2022-12-24T21:15:26.184Z,101699.94
2022-12-24T21:17:54.451Z,101697.85
2022-12-24T21:20:24.313Z,101693.55
2022-12-24T21:22:53.476Z,101691.49
2022-12-24T21:25:24.876Z,101694.33
2022-12-24T21:27:54.757Z,101699.55
2022-12-24T21:30:22.076Z,101701.19
2022-12-24T21:32:48.734Z,101700.15
2022-12-24T21:35:15.995Z,101702.52
2022-12-24T21:37:43.321Z,101705.70
2022-12-24T21:40:10.806Z,101708.87
2022-12-24T21:42:37.465Z,101713.13
2022-12-24T21:45:05.381Z,101710.81
2022-12-24T21:47:34.076Z,101709.64
2022-12-24T21:50:20.269Z,101709.69
2022-12-24T21:52:48.435Z,101707.69
2022-12-24T21:55:15.026Z,101706.20
2022-12-24T21:57:54.113Z,101709.67
2022-12-24T22:00:20.950Z,101710.41
2022-12-24T22:02:52.919Z,101709.00
2022-12-24T22:05:20.288Z,101712.10
2022-12-24T22:08:06.043Z,101713.30
2022-12-24T22:10:51.950Z,101711.90
2022-12-24T22:13:18.816Z,101715.95
2022-12-24T22:15:51.359Z,101717.29
2022-12-24T22:18:21.356Z,101719.38
2022-12-24T22:20:49.166Z,101710.45
2022-12-24T22:23:18.178Z,101705.12
2022-12-24T22:25:45.634Z,101705.27
2022-12-24T22:28:12.795Z,101702.27
2022-12-24T22:30:41.351Z,101700.70
2022-12-24T22:33:10.544Z,101696.05
2022-12-24T22:35:40.906Z,101701.57
2022-12-24T22:38:09.121Z,101703.47
2022-12-24T22:40:39.122Z,101703.70
2022-12-24T22:43:05.773Z,101705.20
2022-12-24T22:45:32.398Z,101707.77
2022-12-24T22:47:59.137Z,101707.59
2022-12-24T22:50:26.062Z,101715.61
2022-12-24T22:52:53.273Z,101711.10
2022-12-24T22:55:21.174Z,101708.27
2022-12-24T22:57:48.235Z,101704.52
2022-12-24T23:00:37.129Z,101698.11
2022-12-24T23:03:04.848Z,101697.29
2022-12-24T23:05:31.971Z,101699.31
2022-12-24T23:07:59.094Z,101696.66
2022-12-24T23:10:25.878Z,101701.52
2022-12-24T23:13:15.094Z,101696.02
2022-12-24T23:15:42.456Z,101698.95
2022-12-24T23:18:09.789Z,101703.14
2022-12-24T23:20:44.900Z,101702.77
2022-12-24T23:23:12.158Z,101699.27
2022-12-24T23:25:39.403Z,101697.11
2022-12-24T23:28:06.064Z,101701.11
2022-12-24T23:30:32.801Z,101700.09
2022-12-24T23:32:59.576Z,101700.58
2022-12-24T23:35:26.611Z,101703.95
2022-12-24T23:37:53.343Z,101704.04
2022-12-24T23:40:20.125Z,101705.45
2022-12-24T23:42:46.987Z,101705.67
2022-12-24T23:45:13.936Z,101705.97
2022-12-24T23:47:40.677Z,101706.08
2022-12-24T23:50:07.949Z,101706.88
2022-12-24T23:52:34.685Z,101709.90
2022-12-24T23:55:01.365Z,101717.40
2022-12-24T23:57:28.216Z,101719.24
2022-12-24T23:59:54.876Z,101719.92
